This is the latest recevied weather packets stored in our database for station/object K7AZM. If no packets are shown the sender has not sent any weather packets the latest 10 day(s).
| Time | Temp. | Humidity | Pressure | Rain* | Wind** | Luminosity | Snow |
|---|---|---|---|---|---|---|---|
| 1777626325 | 20.56° C | 36% | 1010.6 hPa | 0 mm | - | - | - |
| 1777625723 | 21.11° C | 35% | 1010.6 hPa | 0 mm | - | - | - |
| 1777625423 | 21.11° C | 35% | 1010.6 hPa | 0 mm | - | - | - |
| 1777624823 | 21.11° C | 35% | 1010.6 hPa | 0 mm | - | - | - |
| 1777623965 | 21.11° C | 34% | 1010.3 hPa | 0 mm | - | - | - |
| 1777623023 | 21.67° C | 32% | 1010.5 hPa | 0 mm | - | - | - |
| 1777620043 | 23.33° C | 27% | 1010.8 hPa | 0 mm | - | - | - |
| 1777618542 | 23.33° C | 27% | 1010.2 hPa | 0 mm | - | - | - |
| 1777617622 | 23.33° C | 25% | 1010 hPa | 0 mm | - | - | - |
| 1777614622 | 24.44° C | 23% | 1009.1 hPa | 0 mm | - | - | - |
| 1777613721 | 25° C | 23% | 1008.9 hPa | 0 mm | - | - | - |
| 1777610423 | 26.11° C | 19% | 1008.1 hPa | 0 mm | - | - | - |
| 1777610122 | 26.11° C | 19% | 1007.9 hPa | 0 mm | - | - | - |
| 1777607123 | 28.33° C | 13% | 1006.9 hPa | 0 mm | - | - | - |
| 1777605622 | 28.33° C | 13% | 1006.6 hPa | 0 mm | - | - | - |
| 1777603842 | 28.89° C | 13% | 1006.1 hPa | 0 mm | - | - | - |
| 1777603523 | 28.89° C | 13% | 1006.1 hPa | 0 mm | - | - | - |
| 1777602622 | 28.89° C | 13% | 1005.7 hPa | 0 mm | - | - | - |
| 1777601421 | 29.44° C | 12% | 1005.7 hPa | 0 mm | - | - | - |
| 1777597821 | 30° C | 10% | 1004.9 hPa | 0 mm | - | - | - |
| 1777597221 | 30° C | 10% | 1005 hPa | 0 mm | - | - | - |
| 1777596021 | 30.56° C | 10% | 1005.2 hPa | 0 mm | - | - | - |
| 1777593624 | 30.56° C | 10% | 1005.2 hPa | 0 mm | - | - | - |
| 1777591524 | 32.22° C | 10% | 1005.6 hPa | 0 mm | - | - | - |
| 1777589745 | 32.22° C | 10% | 1006.1 hPa | 0 mm | - | - | - |
* Rain latest hour (hover to see other rain measurements)
** Current wind speed in m/s (hover to see current wind gust speed)